Time;durP1;ratioP1;P1;durP2;ratioP2;P2;SDS_P1;SDS_P2;PMS_P1;PMS_P2;Temp;Humidity;BMP_temperature;BMP_pressure;BME280_temperature;BME280_humidity;BME280_pressure;Samples;Min_cycle;Max_cycle;Signal;HPM_P1;HPM_P2
2021/01/20 00:00:06;;;;;;;1.55;0.20;;;18.70;27.40;;;;;;5011964;28;20517;-73
2021/01/20 00:02:34;;;;;;;3.00;0.40;;;18.80;27.30;;;;;;5011723;28;20148;-73
2021/01/20 00:05:00;;;;;;;1.75;0.30;;;18.70;28.20;;;;;;5013682;28;20390;-76
2021/01/20 00:07:28;;;;;;;3.38;0.40;;;18.50;27.60;;;;;;5011456;28;20030;-75
2021/01/20 00:09:54;;;;;;;3.08;0.30;;;17.50;28.20;;;;;;5011614;28;20038;-78
2021/01/20 00:12:21;;;;;;;6.78;0.30;;;17.30;28.70;;;;;;5011524;28;20746;-78
2021/01/20 00:14:49;;;;;;;3.65;0.50;;;17.50;28.50;;;;;;5010096;28;20042;-77
2021/01/20 00:17:16;;;;;;;3.05;0.22;;;17.60;28.40;;;;;;5010848;28;20059;-73
2021/01/20 00:19:43;;;;;;;3.25;0.30;;;17.00;28.40;;;;;;5010795;28;20042;-76
2021/01/20 00:22:12;;;;;;;6.28;0.52;;;16.50;29.10;;;;;;5010484;28;20045;-80
2021/01/20 00:24:39;;;;;;;3.83;0.30;;;16.40;29.10;;;;;;5007893;28;20032;-72
2021/01/20 00:27:07;;;;;;;3.30;0.30;;;16.00;29.50;;;;;;5011616;28;20033;-75
2021/01/20 00:29:35;;;;;;;4.10;0.32;;;15.90;29.80;;;;;;5011918;28;20030;-70
2021/01/20 00:32:02;;;;;;;0.60;0.20;;;15.70;29.60;;;;;;5011649;28;20041;-71
2021/01/20 00:34:29;;;;;;;4.68;0.50;;;15.40;29.90;;;;;;5011391;28;20033;-73
2021/01/20 00:36:56;;;;;;;3.17;0.30;;;15.30;30.00;;;;;;5011370;28;20021;-75
2021/01/20 00:39:23;;;;;;;3.70;0.38;;;15.10;30.20;;;;;;5011480;28;20374;-77
2021/01/20 00:41:50;;;;;;;3.80;0.40;;;15.10;30.20;;;;;;5010120;28;20037;-76
2021/01/20 00:44:17;;;;;;;4.07;0.40;;;15.00;30.30;;;;;;5010923;28;20038;-77
2021/01/20 00:46:46;;;;;;;3.90;0.30;;;14.90;30.00;;;;;;5011068;28;20042;-76
2021/01/20 00:49:13;;;;;;;2.85;0.45;;;14.90;30.50;;;;;;5009526;28;20033;-76
2021/01/20 00:51:40;;;;;;;0.50;0.20;;;14.80;30.80;;;;;;4991729;28;20041;-75
2021/01/20 00:54:07;;;;;;;2.17;0.30;;;14.80;30.50;;;;;;4991729;28;20030;-77
2021/01/20 00:56:37;;;;;;;2.00;0.20;;;14.70;30.80;;;;;;5011044;28;20030;-78
2021/01/20 00:59:04;;;;;;;1.65;0.40;;;14.60;31.00;;;;;;5011462;28;20033;-77
2021/01/20 01:01:30;;;;;;;2.80;0.32;;;14.60;30.70;;;;;;5011242;28;20038;-79
2021/01/20 01:03:58;;;;;;;1.50;0.25;;;14.50;31.20;;;;;;5011684;28;20026;-76
2021/01/20 01:06:25;;;;;;;6.63;0.32;;;14.40;30.90;;;;;;5010881;28;20038;-75
2021/01/20 01:08:52;;;;;;;2.70;0.38;;;14.30;30.60;;;;;;5011555;28;20376;-79
2021/01/20 01:11:18;;;;;;;5.05;0.32;;;14.30;31.10;;;;;;5010799;28;20052;-77
2021/01/20 01:13:45;;;;;;;8.02;0.65;;;14.30;31.20;;;;;;4992380;28;20027;-77
2021/01/20 01:16:12;;;;;;;1.95;0.20;;;14.10;30.90;;;;;;5005326;28;20038;-77
2021/01/20 01:18:39;;;;;;;5.03;0.50;;;14.20;30.80;;;;;;5011244;28;20037;-77
2021/01/20 01:21:06;;;;;;;3.95;0.32;;;14.10;30.70;;;;;;5011012;28;20053;-76
2021/01/20 01:23:34;;;;;;;5.07;0.60;;;14.10;31.10;;;;;;4999210;28;20407;-78
2021/01/20 01:26:01;;;;;;;3.13;0.30;;;14.00;30.90;;;;;;4999613;28;20114;-77
2021/01/20 01:28:27;;;;;;;1.33;0.47;;;13.90;30.90;;;;;;5013020;28;20025;-76
2021/01/20 01:30:54;;;;;;;3.75;0.30;;;13.90;30.90;;;;;;5015142;28;20041;-79
2021/01/20 01:33:21;;;;;;;3.58;0.30;;;13.80;31.20;;;;;;5014707;28;20387;-75
2021/01/20 01:35:48;;;;;;;2.65;0.45;;;13.80;31.10;;;;;;5013463;28;20034;-74
2021/01/20 01:38:15;;;;;;;3.95;0.47;;;13.70;32.20;;;;;;4999558;28;20041;-77
2021/01/20 01:40:42;;;;;;;5.38;0.57;;;13.60;31.50;;;;;;5013845;28;20038;-75
2021/01/20 01:43:09;;;;;;;4.78;0.38;;;13.70;31.20;;;;;;5013675;28;20026;-77
2021/01/20 01:45:36;;;;;;;3.50;0.40;;;13.70;31.50;;;;;;5013057;28;20042;-77
2021/01/20 01:48:03;;;;;;;7.03;2.33;;;13.60;31.30;;;;;;5014077;28;20044;-76
2021/01/20 01:50:30;;;;;;;28.50;23.05;;;13.60;31.80;;;;;;4995726;28;20041;-77
2021/01/20 01:52:58;;;;;;;13.70;12.25;;;13.50;31.90;;;;;;5013724;28;20037;-76
2021/01/20 01:55:25;;;;;;;6.50;2.30;;;13.50;32.00;;;;;;5014477;28;20129;-76
2021/01/20 01:57:52;;;;;;;6.25;2.15;;;13.50;31.30;;;;;;5013652;28;20030;-76
2021/01/20 02:00:19;;;;;;;8.48;2.00;;;13.50;31.60;;;;;;5014486;28;20525;-79
2021/01/20 02:02:49;;;;;;;7.10;2.97;;;13.50;31.50;;;;;;4995071;28;20038;-75
2021/01/20 02:05:16;;;;;;;2.63;2.15;;;13.50;31.30;;;;;;5014359;28;20041;-78
2021/01/20 02:07:47;;;;;;;6.90;0.88;;;13.50;31.00;;;;;;5013973;28;20394;-77
2021/01/20 02:10:14;;;;;;;7.00;1.17;;;13.40;31.50;;;;;;5014206;28;20374;-76
2021/01/20 02:13:03;;;;;;;3.95;1.13;;;13.60;31.10;;;;;;5013648;28;20038;-76
2021/01/20 02:15:59;;;;;;;2.70;0.60;;;13.60;31.10;;;;;;5014133;28;20034;-78
2021/01/20 02:18:30;;;;;;;3.47;1.42;;;13.50;31.20;;;;;;5011304;28;20045;-78
2021/01/20 02:21:00;;;;;;;5.65;0.65;;;13.50;30.90;;;;;;5002769;28;20053;-78
2021/01/20 02:23:27;;;;;;;4.78;1.00;;;13.40;31.20;;;;;;5013796;28;20367;-76
2021/01/20 02:26:19;;;;;;;6.55;0.70;;;13.30;31.10;;;;;;5013928;28;20034;-76
2021/01/20 02:29:14;;;;;;;5.90;1.27;;;13.50;30.50;;;;;;4999069;28;20049;-77
2021/01/20 02:31:44;;;;;;;7.75;1.23;;;13.40;31.30;;;;;;5011098;28;20041;-75
2021/01/20 02:34:16;;;;;;;3.60;0.70;;;13.40;30.70;;;;;;5013612;28;20352;-74
2021/01/20 02:36:46;;;;;;;2.80;0.88;;;13.50;30.80;;;;;;5012987;28;20042;-74
2021/01/20 02:39:13;;;;;;;3.08;0.95;;;13.30;31.20;;;;;;5013075;28;20045;-71
2021/01/20 02:41:40;;;;;;;8.43;1.75;;;13.40;30.60;;;;;;5012286;28;20517;-76
2021/01/20 02:44:07;;;;;;;3.40;0.45;;;13.40;30.50;;;;;;5013240;28;20390;-78
2021/01/20 02:46:36;;;;;;;8.10;1.42;;;13.50;30.50;;;;;;5012761;28;20046;-72
2021/01/20 02:49:04;;;;;;;8.15;0.80;;;13.50;30.70;;;;;;4995468;28;20045;-78
2021/01/20 02:52:16;;;;;;;6.15;0.50;;;13.30;31.20;;;;;;4995137;28;20494;-72
2021/01/20 02:54:46;;;;;;;4.85;1.52;;;13.50;30.50;;;;;;4914616;29;20040;-78
2021/01/20 02:57:15;;;;;;;1.83;0.45;;;13.30;30.90;;;;;;4914027;29;20036;-77
2021/01/20 02:59:47;;;;;;;8.32;0.85;;;13.20;30.80;;;;;;4914229;29;20516;-76
2021/01/20 03:02:18;;;;;;;4.75;0.60;;;13.30;30.30;;;;;;4914288;29;20084;-77
2021/01/20 03:04:47;;;;;;;9.00;1.23;;;13.40;30.40;;;;;;4914743;29;20492;-77
2021/01/20 03:07:16;;;;;;;3.92;0.88;;;13.30;30.50;;;;;;4913902;29;20048;-76
2021/01/20 03:09:43;;;;;;;5.28;1.20;;;13.40;30.40;;;;;;4914328;29;20035;-75
2021/01/20 03:12:10;;;;;;;10.68;1.55;;;13.30;30.60;;;;;;4913987;29;20051;-77
2021/01/20 03:14:39;;;;;;;10.35;1.88;;;13.20;30.60;;;;;;4914048;29;20032;-76
2021/01/20 03:17:06;;;;;;;4.32;0.80;;;13.20;30.60;;;;;;4913027;29;20505;-76
2021/01/20 03:19:33;;;;;;;7.90;0.98;;;13.30;30.50;;;;;;4913879;29;20050;-75
2021/01/20 03:22:00;;;;;;;3.40;0.85;;;13.30;30.20;;;;;;4913966;29;20072;-76
2021/01/20 03:24:27;;;;;;;7.63;0.55;;;13.30;30.40;;;;;;4913288;29;20040;-75
2021/01/20 03:26:54;;;;;;;7.40;1.23;;;13.30;30.40;;;;;;4920608;29;20055;-76
2021/01/20 03:29:21;;;;;;;13.23;3.28;;;13.20;30.80;;;;;;4913791;29;20044;-74
2021/01/20 03:31:48;;;;;;;4.32;2.15;;;13.20;30.40;;;;;;4960307;28;20045;-76
2021/01/20 03:34:15;;;;;;;11.48;2.20;;;13.30;30.40;;;;;;5013276;28;20029;-75
2021/01/20 03:36:41;;;;;;;5.43;1.40;;;13.20;30.40;;;;;;5012481;28;20493;-79
2021/01/20 03:39:08;;;;;;;12.10;2.40;;;13.20;30.40;;;;;;5012321;28;20025;-77
2021/01/20 03:41:35;;;;;;;14.82;1.63;;;13.30;30.20;;;;;;5012555;28;20026;-76
2021/01/20 03:44:02;;;;;;;11.75;4.70;;;13.20;30.30;;;;;;5012683;28;20030;-75
2021/01/20 03:46:29;;;;;;;18.45;4.22;;;13.10;30.50;;;;;;5012376;28;20053;-77
2021/01/20 03:48:56;;;;;;;14.52;3.42;;;13.00;31.10;;;;;;5012577;28;20018;-80
2021/01/20 03:51:27;;;;;;;12.02;2.08;;;12.90;31.00;;;;;;5011712;28;20029;-78
2021/01/20 03:53:56;;;;;;;9.05;1.77;;;12.90;31.10;;;;;;5012201;28;20048;-78
2021/01/20 03:56:26;;;;;;;7.00;0.93;;;12.90;30.90;;;;;;5012478;28;20045;-78
2021/01/20 03:58:53;;;;;;;12.00;2.05;;;12.90;30.90;;;;;;5012427;28;20037;-72
2021/01/20 04:01:20;;;;;;;8.85;2.50;;;12.90;30.90;;;;;;5012235;28;20037;-78
2021/01/20 04:03:47;;;;;;;6.57;1.42;;;12.80;31.40;;;;;;5011337;28;20034;-77
2021/01/20 04:06:14;;;;;;;11.70;3.05;;;12.70;31.80;;;;;;5009835;28;20069;-77
2021/01/20 04:08:40;;;;;;;12.30;1.52;;;12.60;31.70;;;;;;5012185;28;20018;-78
2021/01/20 04:11:07;;;;;;;15.13;5.43;;;12.70;31.10;;;;;;5011619;28;20037;-77
2021/01/20 04:13:35;;;;;;;12.27;2.00;;;12.60;31.30;;;;;;5011047;28;20034;-77
2021/01/20 04:16:03;;;;;;;9.40;1.35;;;12.60;31.20;;;;;;5011405;28;20038;-78
2021/01/20 04:18:30;;;;;;;14.18;3.20;;;12.80;31.20;;;;;;5011889;28;20026;-77
2021/01/20 04:20:57;;;;;;;15.82;2.42;;;12.80;31.00;;;;;;5012259;28;20018;-76
2021/01/20 04:23:25;;;;;;;10.75;1.02;;;12.80;31.00;;;;;;5010715;28;20041;-77
2021/01/20 04:25:51;;;;;;;11.93;1.33;;;12.90;30.70;;;;;;5010627;28;20784;-76
2021/01/20 04:28:18;;;;;;;11.60;1.45;;;12.90;30.90;;;;;;5010778;28;20042;-77
2021/01/20 04:30:45;;;;;;;12.07;1.30;;;12.80;31.40;;;;;;5010567;28;20501;-77
2021/01/20 04:33:12;;;;;;;16.75;1.08;;;12.80;30.80;;;;;;5011307;28;20045;-78
2021/01/20 04:35:39;;;;;;;12.90;1.42;;;12.80;31.20;;;;;;5011608;28;20030;-77
2021/01/20 04:38:06;;;;;;;11.38;1.40;;;12.80;31.10;;;;;;5009692;28;20041;-78
2021/01/20 04:40:33;;;;;;;10.57;1.15;;;12.80;31.50;;;;;;5011016;28;20396;-78
2021/01/20 04:43:00;;;;;;;10.55;2.15;;;12.70;31.60;;;;;;5009148;28;20390;-78
2021/01/20 04:45:27;;;;;;;15.07;1.33;;;12.60;32.00;;;;;;5010918;28;20054;-77
2021/01/20 04:47:56;;;;;;;6.50;1.13;;;12.60;31.80;;;;;;5010365;28;20037;-75
2021/01/20 04:50:23;;;;;;;13.18;1.08;;;12.70;32.00;;;;;;5010942;28;20029;-77
2021/01/20 04:52:54;;;;;;;22.52;1.42;;;12.50;32.20;;;;;;5010169;28;20419;-76
2021/01/20 04:55:24;;;;;;;10.85;1.23;;;12.60;32.00;;;;;;4993112;28;20045;-76
2021/01/20 04:57:51;;;;;;;10.82;1.02;;;12.40;32.60;;;;;;5010011;28;20105;-76
2021/01/20 05:00:19;;;;;;;7.43;1.02;;;12.40;32.30;;;;;;5011330;28;20029;-76
2021/01/20 05:02:46;;;;;;;14.43;1.40;;;12.40;32.30;;;;;;5010423;28;20025;-77
2021/01/20 05:05:15;;;;;;;13.38;1.00;;;12.30;32.70;;;;;;5014150;28;20029;-77
2021/01/20 05:07:42;;;;;;;18.90;1.35;;;12.30;32.50;;;;;;5013417;28;20421;-76
2021/01/20 05:10:09;;;;;;;12.32;1.00;;;12.40;32.20;;;;;;5014306;28;20041;-76
2021/01/20 05:12:45;;;;;;;12.20;1.08;;;12.50;32.00;;;;;;5015210;28;20462;-77
2021/01/20 05:15:16;;;;;;;16.05;1.40;;;12.70;32.00;;;;;;5008423;28;20041;-76
2021/01/20 05:17:56;;;;;;;11.05;1.08;;;12.50;32.20;;;;;;5014389;28;20463;-77
2021/01/20 05:20:29;;;;;;;12.32;1.77;;;12.70;32.20;;;;;;5015112;28;20029;-74
2021/01/20 05:23:00;;;;;;;11.57;1.02;;;12.60;32.20;;;;;;5013700;28;20049;-71
2021/01/20 05:25:38;;;;;;;15.23;0.95;;;12.70;32.20;;;;;;5013672;28;20524;-79
2021/01/20 05:28:18;;;;;;;10.30;1.15;;;12.70;32.10;;;;;;5013963;28;20061;-76
2021/01/20 05:31:04;;;;;;;9.52;1.63;;;12.70;32.20;;;;;;5005205;28;20036;-72
2021/01/20 05:33:40;;;;;;;11.52;1.20;;;12.60;32.10;;;;;;5016042;28;20033;-77
2021/01/20 05:36:11;;;;;;;7.15;0.75;;;12.80;32.10;;;;;;5010356;28;20026;-76
2021/01/20 05:38:43;;;;;;;11.98;1.05;;;12.70;32.30;;;;;;5014814;28;20030;-77
2021/01/20 05:41:20;;;;;;;14.88;0.95;;;12.60;32.30;;;;;;4997058;28;20501;-77
2021/01/20 05:43:53;;;;;;;13.00;1.02;;;12.60;32.20;;;;;;5013703;28;20045;-76
2021/01/20 05:46:37;;;;;;;24.77;2.53;;;12.70;32.40;;;;;;5013784;28;20046;-76
2021/01/20 05:49:05;;;;;;;14.80;1.13;;;12.60;32.20;;;;;;5013955;28;20390;-75
2021/01/20 05:51:42;;;;;;;15.43;1.10;;;12.60;32.40;;;;;;5012160;28;20040;-77
2021/01/20 05:54:10;;;;;;;16.92;1.40;;;12.50;32.50;;;;;;5014567;28;20033;-74
2021/01/20 05:56:37;;;;;;;14.15;1.88;;;12.50;32.50;;;;;;5013890;28;20033;-77
2021/01/20 05:59:14;;;;;;;15.07;1.33;;;12.50;32.60;;;;;;5013245;28;20053;-77
2021/01/20 06:01:42;;;;;;;13.07;1.55;;;12.40;32.70;;;;;;5014364;28;20041;-75
2021/01/20 06:04:09;;;;;;;23.70;1.90;;;12.50;32.70;;;;;;5014287;28;20030;-77
2021/01/20 06:06:38;;;;;;;16.02;1.20;;;12.40;33.00;;;;;;5013705;28;20041;-77
2021/01/20 06:09:07;;;;;;;21.08;0.90;;;12.30;33.20;;;;;;5013357;28;20045;-76
2021/01/20 06:11:34;;;;;;;6.32;1.10;;;12.20;33.20;;;;;;5012416;28;20041;-76
2021/01/20 06:14:02;;;;;;;14.50;1.00;;;12.20;33.50;;;;;;5013738;28;20033;-77
2021/01/20 06:16:35;;;;;;;9.15;0.90;;;12.30;33.30;;;;;;5013062;28;20045;-75
2021/01/20 06:19:30;;;;;;;11.43;1.00;;;12.20;33.70;;;;;;5002934;28;20174;-74
2021/01/20 06:22:02;;;;;;;7.47;1.25;;;12.10;33.60;;;;;;4994708;28;20034;-74
2021/01/20 06:24:33;;;;;;;21.67;1.67;;;12.10;33.60;;;;;;4995737;28;20042;-76
2021/01/20 06:27:13;;;;;;;11.88;1.63;;;12.10;33.70;;;;;;5013115;28;20026;-74
2021/01/20 06:29:51;;;;;;;15.05;1.00;;;12.10;33.80;;;;;;5013630;28;20038;-73
2021/01/20 06:32:26;;;;;;;16.27;1.27;;;12.00;33.90;;;;;;5012868;28;20033;-76
2021/01/20 06:34:57;;;;;;;17.08;1.67;;;12.00;34.20;;;;;;5014177;28;20021;-75
2021/01/20 06:37:42;;;;;;;8.70;1.70;;;11.90;34.10;;;;;;4996653;28;20153;-76
2021/01/20 06:40:21;;;;;;;10.88;1.52;;;11.90;34.10;;;;;;5012719;28;20041;-76
2021/01/20 06:42:49;;;;;;;20.95;1.23;;;11.80;34.20;;;;;;5013462;28;20041;-76
2021/01/20 06:45:22;;;;;;;14.45;1.48;;;11.90;33.80;;;;;;5013470;28;20038;-77
2021/01/20 06:48:00;;;;;;;10.63;1.20;;;12.00;33.70;;;;;;5011883;28;20049;-78
2021/01/20 06:50:34;;;;;;;13.98;1.75;;;12.00;33.70;;;;;;5012490;28;20026;-74
2021/01/20 06:53:08;;;;;;;12.07;1.15;;;12.00;33.20;;;;;;5012681;28;20029;-75
2021/01/20 06:55:36;;;;;;;31.58;1.92;;;12.10;33.20;;;;;;4995260;28;20041;-77
2021/01/20 06:58:26;;;;;;;21.63;2.03;;;12.10;33.00;;;;;;5012806;28;20025;-74
2021/01/20 07:00:59;;;;;;;15.45;1.85;;;12.10;32.90;;;;;;5013044;28;20490;-77
2021/01/20 07:03:41;;;;;;;15.88;1.40;;;12.00;33.00;;;;;;5012979;28;20030;-76
2021/01/20 07:06:35;;;;;;;24.20;2.90;;;12.10;33.00;;;;;;5012995;28;20474;-78
2021/01/20 07:09:16;;;;;;;15.43;1.23;;;12.20;32.60;;;;;;5011369;28;20470;-73
2021/01/20 07:12:01;;;;;;;13.77;1.20;;;12.10;32.90;;;;;;5003607;28;20044;-76
2021/01/20 07:14:29;;;;;;;15.30;1.85;;;12.00;33.30;;;;;;5013143;28;20018;-72
2021/01/20 07:16:59;;;;;;;17.27;2.03;;;11.90;33.10;;;;;;5013387;28;20026;-75
2021/01/20 07:19:27;;;;;;;10.10;1.23;;;11.90;33.30;;;;;;5013146;28;20048;-83
2021/01/20 07:21:55;;;;;;;13.60;1.58;;;11.90;33.00;;;;;;5013254;28;20398;-82
2021/01/20 07:24:22;;;;;;;16.02;1.40;;;12.00;33.20;;;;;;5013556;28;20018;-85
2021/01/20 07:26:49;;;;;;;18.10;1.77;;;12.00;32.90;;;;;;5013131;28;20533;-81
2021/01/20 07:29:16;;;;;;;22.73;1.95;;;12.00;32.60;;;;;;5012862;28;20026;-78
2021/01/20 07:31:47;;;;;;;12.20;1.60;;;12.00;32.70;;;;;;5010708;28;20041;-79
2021/01/20 07:34:14;;;;;;;13.63;1.15;;;12.10;32.60;;;;;;5013012;28;20033;-77
2021/01/20 07:36:41;;;;;;;26.20;2.60;;;12.00;32.40;;;;;;5012784;28;20367;-81
2021/01/20 07:39:26;;;;;;;13.18;1.25;;;12.10;32.60;;;;;;4995577;28;20046;-79
2021/01/20 07:41:57;;;;;;;15.85;1.65;;;12.00;32.40;;;;;;5010183;28;20042;-78
2021/01/20 07:44:30;;;;;;;22.88;1.90;;;12.00;32.40;;;;;;5012703;28;20022;-75
2021/01/20 07:47:05;;;;;;;14.07;1.60;;;12.10;32.40;;;;;;5012192;28;20387;-82
2021/01/20 07:49:34;;;;;;;19.75;1.70;;;12.10;32.50;;;;;;5012745;28;20026;-77
2021/01/20 07:52:05;;;;;;;19.33;2.13;;;12.10;32.70;;;;;;5012412;28;20378;-77
2021/01/20 07:54:39;;;;;;;13.50;1.50;;;11.90;32.80;;;;;;5013035;28;20026;-82
2021/01/20 07:57:07;;;;;;;23.67;1.48;;;11.70;33.40;;;;;;5012430;28;20030;-81
2021/01/20 07:59:35;;;;;;;16.52;1.58;;;11.70;33.30;;;;;;5012824;28;20048;-76
2021/01/20 08:02:06;;;;;;;16.48;1.52;;;11.70;32.80;;;;;;5012465;28;20034;-76
2021/01/20 08:04:33;;;;;;;27.27;1.85;;;11.80;32.50;;;;;;5011669;28;20034;-82
2021/01/20 08:07:00;;;;;;;13.25;1.60;;;11.90;32.50;;;;;;5012092;28;20409;-82
2021/01/20 08:09:45;;;;;;;22.80;2.75;;;11.80;32.80;;;;;;5012631;28;20026;-76
2021/01/20 08:12:16;;;;;;;18.73;1.33;;;11.80;32.80;;;;;;5012756;28;20037;-74
2021/01/20 08:14:45;;;;;;;15.60;1.23;;;11.90;32.40;;;;;;4993266;28;20031;-78
2021/01/20 08:17:13;;;;;;;26.70;1.75;;;12.00;32.50;;;;;;5001351;28;20034;-75
2021/01/20 08:19:40;;;;;;;20.58;1.98;;;11.90;32.70;;;;;;5012438;28;20017;-78
2021/01/20 08:22:15;;;;;;;17.10;2.65;;;11.70;33.00;;;;;;5011901;28;20413;-77
2021/01/20 08:24:45;;;;;;;16.95;1.30;;;11.90;32.60;;;;;;5011725;28;20022;-75
2021/01/20 08:27:13;;;;;;;20.67;1.30;;;11.80;32.80;;;;;;5012118;28;20394;-78
2021/01/20 08:29:51;;;;;;;19.52;1.17;;;11.70;33.00;;;;;;5012221;28;20025;-81
2021/01/20 08:32:19;;;;;;;16.10;1.63;;;11.50;33.30;;;;;;5012002;28;20042;-76
2021/01/20 08:34:48;;;;;;;26.10;1.88;;;11.70;32.60;;;;;;5012220;28;20030;-85
2021/01/20 08:37:32;;;;;;;16.63;2.33;;;12.00;32.10;;;;;;4993555;28;20048;-78
2021/01/20 08:40:01;;;;;;;18.35;1.58;;;12.00;32.00;;;;;;5012369;28;20018;-76
2021/01/20 08:42:37;;;;;;;11.65;1.52;;;11.90;32.50;;;;;;5011498;28;20470;-78
2021/01/20 08:45:13;;;;;;;23.85;1.58;;;11.90;32.30;;;;;;5011012;28;20406;-74
2021/01/20 08:47:51;;;;;;;25.30;1.38;;;11.90;32.10;;;;;;5010250;28;20061;-74
2021/01/20 08:50:31;;;;;;;21.42;1.50;;;12.00;31.80;;;;;;4993669;28;20479;-72
2021/01/20 08:53:12;;;;;;;21.70;1.20;;;12.20;31.70;;;;;;4994118;28;20042;-76
2021/01/20 08:55:40;;;;;;;35.00;1.50;;;12.00;31.90;;;;;;5011475;28;20030;-76
2021/01/20 08:58:30;;;;;;;17.95;1.83;;;11.80;32.10;;;;;;4992971;28;20038;-74
2021/01/20 09:01:09;;;;;;;23.35;2.58;;;11.90;32.00;;;;;;5011591;28;20037;-73
2021/01/20 09:03:37;;;;;;;18.25;2.15;;;12.00;31.60;;;;;;5010150;28;20041;-74
2021/01/20 09:06:15;;;;;;;29.92;2.35;;;12.10;31.50;;;;;;5010082;28;20399;-73
2021/01/20 09:08:42;;;;;;;24.98;1.33;;;12.00;31.60;;;;;;5010076;28;20054;-72
2021/01/20 09:11:09;;;;;;;16.63;1.67;;;12.00;31.70;;;;;;5011652;28;20033;-72
2021/01/20 09:13:36;;;;;;;27.10;2.55;;;12.00;31.70;;;;;;5011196;28;20358;-72
2021/01/20 09:16:04;;;;;;;22.00;2.60;;;11.90;31.80;;;;;;5010781;28;20029;-72
2021/01/20 09:18:31;;;;;;;19.23;1.98;;;11.90;31.80;;;;;;4993199;28;20041;-72
2021/01/20 09:20:58;;;;;;;13.63;1.40;;;11.90;31.80;;;;;;5011456;28;20026;-71
2021/01/20 09:23:25;;;;;;;17.98;1.45;;;11.80;31.90;;;;;;5013413;28;20481;-71
2021/01/20 09:25:53;;;;;;;14.43;1.52;;;11.90;31.60;;;;;;5012127;28;20045;-72
2021/01/20 09:28:25;;;;;;;17.38;2.45;;;11.80;31.80;;;;;;5010640;28;20058;-76
2021/01/20 09:30:52;;;;;;;;;;;11.70;32.00;;;;;;5011892;28;20040;-74
2021/01/20 09:33:19;;;;;;;19.42;3.22;;;11.60;32.40;;;;;;4997650;28;19913;-72
2021/01/20 09:35:46;;;;;;;24.95;1.92;;;11.80;31.70;;;;;;5000286;28;20025;-71
2021/01/20 09:38:16;;;;;;;25.48;1.85;;;11.90;31.80;;;;;;5010367;28;20179;-76
2021/01/20 09:40:43;;;;;;;23.30;1.75;;;11.60;32.30;;;;;;5011415;28;20030;-75
2021/01/20 09:43:09;;;;;;;30.90;2.13;;;11.50;32.50;;;;;;5010442;28;20054;-71
2021/01/20 09:45:37;;;;;;;24.63;2.70;;;11.70;32.10;;;;;;5011586;28;20050;-72
2021/01/20 09:48:06;;;;;;;23.95;2.83;;;11.90;31.90;;;;;;4992769;28;20060;-73
2021/01/20 09:50:34;;;;;;;19.73;1.80;;;11.90;31.50;;;;;;4994882;28;20049;-72
2021/01/20 09:53:05;;;;;;;25.50;2.63;;;12.00;31.50;;;;;;4996093;28;20046;-70
2021/01/20 09:55:33;;;;;;;25.83;2.20;;;12.00;31.60;;;;;;5014808;28;20490;-72
2021/01/20 09:58:03;;;;;;;22.50;1.88;;;11.90;31.60;;;;;;5014143;28;20394;-72
2021/01/20 10:00:34;;;;;;;23.05;2.10;;;11.80;31.70;;;;;;5014367;28;20030;-72
2021/01/20 10:03:04;;;;;;;;;;;11.70;32.00;;;;;;5014652;28;20029;-72
2021/01/20 10:05:31;;;;;;;14.38;2.88;;;11.80;31.80;;;;;;5013981;28;19906;-71
2021/01/20 10:07:58;;;;;;;15.70;2.22;;;11.80;31.60;;;;;;5013886;28;20042;-74
2021/01/20 10:10:25;;;;;;;29.17;2.15;;;11.90;31.80;;;;;;5014536;28;20033;-71
2021/01/20 10:12:54;;;;;;;32.25;3.45;;;11.90;31.70;;;;;;5013286;28;20037;-73
2021/01/20 10:15:22;;;;;;;18.35;1.95;;;11.80;31.60;;;;;;5014355;28;20025;-72
2021/01/20 10:17:51;;;;;;;28.48;2.47;;;11.90;31.50;;;;;;5013812;28;20026;-72
2021/01/20 10:20:19;;;;;;;27.13;2.85;;;11.80;31.70;;;;;;5014399;28;20370;-73
2021/01/20 10:22:46;;;;;;;17.77;1.95;;;11.70;31.90;;;;;;5013696;28;20034;-75
2021/01/20 10:25:13;;;;;;;22.85;2.17;;;11.80;31.70;;;;;;5014375;28;20367;-74
2021/01/20 10:27:40;;;;;;;31.40;2.70;;;11.80;31.70;;;;;;5013431;28;20486;-73
2021/01/20 10:30:08;;;;;;;33.67;2.38;;;11.80;31.60;;;;;;5014245;28;20573;-73
2021/01/20 10:32:35;;;;;;;23.27;2.58;;;11.90;31.60;;;;;;5013931;28;20038;-72
2021/01/20 10:35:08;;;;;;;21.35;1.60;;;11.80;31.80;;;;;;5013769;28;20029;-70
2021/01/20 10:37:35;;;;;;;19.92;2.20;;;11.80;31.90;;;;;;5013567;28;20482;-70
2021/01/20 10:40:02;;;;;;;31.25;2.40;;;11.70;31.90;;;;;;5012473;28;20049;-72
2021/01/20 10:42:29;;;;;;;33.00;2.58;;;11.80;31.60;;;;;;5013646;28;20501;-78
2021/01/20 10:44:56;;;;;;;24.65;2.17;;;11.80;31.90;;;;;;5013009;28;20057;-72
2021/01/20 10:47:23;;;;;;;31.95;2.95;;;11.70;31.80;;;;;;4995102;28;20056;-73
2021/01/20 10:49:50;;;;;;;35.70;3.92;;;11.80;31.90;;;;;;5011875;28;20064;-72
2021/01/20 10:52:17;;;;;;;32.88;2.92;;;11.90;31.90;;;;;;5012148;28;20412;-77
2021/01/20 10:54:44;;;;;;;26.38;2.13;;;11.70;32.00;;;;;;5013361;28;20379;-76
2021/01/20 10:57:13;;;;;;;38.90;3.65;;;11.80;31.70;;;;;;5013432;28;20022;-71
2021/01/20 10:59:43;;;;;;;41.13;3.38;;;11.80;31.80;;;;;;5013033;28;20096;-71
2021/01/20 11:02:11;;;;;;;35.22;2.60;;;11.70;31.90;;;;;;5013503;28;20036;-71
2021/01/20 11:04:38;;;;;;;32.00;2.95;;;11.70;31.80;;;;;;5010016;28;20034;-72
2021/01/20 11:07:06;;;;;;;31.75;3.65;;;11.70;31.90;;;;;;5013181;28;20049;-74
2021/01/20 11:09:33;;;;;;;35.38;3.95;;;11.70;31.90;;;;;;4994321;28;20093;-71
2021/01/20 11:12:00;;;;;;;27.52;2.10;;;11.70;31.80;;;;;;5013236;28;20026;-77
2021/01/20 11:14:29;;;;;;;33.22;3.63;;;11.70;31.90;;;;;;5012374;28;20038;-75
2021/01/20 11:16:57;;;;;;;29.60;3.10;;;11.80;31.90;;;;;;5013401;28;20038;-72
2021/01/20 11:19:23;;;;;;;27.50;2.38;;;11.70;31.80;;;;;;5011886;28;20394;-70
2021/01/20 11:21:51;;;;;;;27.58;2.58;;;11.70;31.90;;;;;;5012891;28;20045;-71
2021/01/20 11:24:18;;;;;;;29.38;3.67;;;11.60;32.10;;;;;;5011821;28;20490;-72
2021/01/20 11:26:46;;;;;;;30.35;2.60;;;11.70;31.70;;;;;;5012260;28;20042;-71
2021/01/20 11:29:14;;;;;;;25.77;3.00;;;11.80;31.60;;;;;;5012412;28;20065;-72
2021/01/20 11:31:41;;;;;;;41.15;4.68;;;11.80;31.70;;;;;;5012954;28;20022;-72
2021/01/20 11:34:08;;;;;;;39.95;3.13;;;11.70;31.80;;;;;;5011114;28;20034;-72
2021/01/20 11:36:35;;;;;;;29.60;2.42;;;11.70;31.80;;;;;;5011466;28;20145;-73
2021/01/20 11:39:05;;;;;;;32.75;2.92;;;11.70;31.70;;;;;;5006408;28;20478;-75
2021/01/20 11:41:32;;;;;;;46.92;5.80;;;11.70;31.80;;;;;;5012230;28;20030;-76
2021/01/20 11:43:58;;;;;;;38.30;3.85;;;11.70;31.70;;;;;;5001650;28;20378;-74
2021/01/20 11:46:26;;;;;;;46.10;3.35;;;11.70;31.80;;;;;;5011741;28;20085;-72
2021/01/20 11:48:53;;;;;;;27.48;2.85;;;11.60;31.60;;;;;;5011819;28;20054;-72
2021/01/20 11:51:20;;;;;;;37.63;2.85;;;11.70;31.70;;;;;;5011004;28;20038;-72
2021/01/20 11:53:47;;;;;;;35.25;4.05;;;11.70;31.60;;;;;;5012657;28;20052;-74
2021/01/20 11:56:14;;;;;;;38.13;3.33;;;11.80;31.40;;;;;;5012206;28;20030;-74
2021/01/20 11:58:41;;;;;;;34.55;2.67;;;11.50;31.90;;;;;;5011737;28;20033;-75
2021/01/20 12:01:09;;;;;;;33.55;3.45;;;11.50;31.90;;;;;;5011198;28;20037;-70
2021/01/20 12:03:35;;;;;;;28.33;3.50;;;11.70;31.50;;;;;;4994333;28;20042;-73
2021/01/20 12:06:02;;;;;;;46.70;4.22;;;11.70;31.70;;;;;;5011996;28;20391;-70
2021/01/20 12:08:29;;;;;;;27.60;3.83;;;11.70;31.60;;;;;;5011901;28;20493;-71
2021/01/20 12:10:56;;;;;;;35.17;2.75;;;11.70;31.40;;;;;;5011785;28;20029;-72
2021/01/20 12:13:23;;;;;;;33.95;2.88;;;11.70;31.50;;;;;;5012030;28;20041;-72
2021/01/20 12:15:50;;;;;;;40.72;5.03;;;11.80;31.40;;;;;;5010921;28;20049;-71
2021/01/20 12:18:17;;;;;;;50.10;4.32;;;11.60;31.60;;;;;;5012282;28;20036;-74
2021/01/20 12:20:44;;;;;;;43.78;2.92;;;11.60;31.40;;;;;;5010694;28;20034;-71
2021/01/20 12:23:11;;;;;;;39.75;3.40;;;11.70;31.40;;;;;;5012088;28;20140;-70
2021/01/20 12:25:38;;;;;;;43.53;3.17;;;11.70;31.40;;;;;;4994534;28;20033;-74
2021/01/20 12:28:05;;;;;;;42.35;4.55;;;11.70;31.40;;;;;;5011806;28;20390;-71
2021/01/20 12:30:32;;;;;;;46.22;3.88;;;11.70;31.50;;;;;;5011612;28;20022;-71
2021/01/20 12:32:59;;;;;;;39.78;3.53;;;11.60;31.50;;;;;;5011868;28;20040;-72
2021/01/20 12:35:26;;;;;;;33.13;3.67;;;11.50;31.70;;;;;;5011746;28;20033;-72
2021/01/20 12:37:53;;;;;;;30.00;2.47;;;11.60;31.30;;;;;;5011741;28;20025;-71
2021/01/20 12:40:19;;;;;;;39.92;3.05;;;11.50;31.60;;;;;;5011378;28;20037;-72
2021/01/20 12:42:47;;;;;;;46.50;3.78;;;11.50;31.70;;;;;;5011228;28;20057;-75
2021/01/20 12:45:14;;;;;;;41.22;4.10;;;11.50;31.70;;;;;;5011628;28;20052;-75
2021/01/20 12:47:40;;;;;;;32.65;4.22;;;11.50;31.70;;;;;;5013027;28;20030;-77
2021/01/20 12:50:08;;;;;;;43.38;3.50;;;11.40;31.80;;;;;;4994881;28;20485;-74
2021/01/20 12:52:35;;;;;;;36.97;3.75;;;11.30;31.80;;;;;;5011446;28;20037;-72